Hovedside
METAR-TAF:

METAR-TAF

Lufthavner :

Curaçao, De nederlandske Antillene

Curaçao internasjonale lufthavn

breddegrad: 12-12N, lengdegrad: 068-58W, høyde over havet: 9 m

Gjeldene værobservasjon

Denne rapporten ble laget for 10 minutter siden, klokken 11:00 UTC
Vind 10 kt fra Øst-sørøst
Temperatur 27°C
Luftfuktighet 74%
Trykk 1013 hPa
Sikt 10 km eller mer
Få skyer i en høyde av 1900 ft

METAR: TNCC 261100Z 12010KT 9999 FEW019 27/22 Q1013 NOSIG

Tid: 07:10 (11:10 UTC)

Varsel

Denne rapporten ble laget for 7 timer og 40 minutter siden, klokken 03:30 UTC
Varsel gyldig fra 26. klokken 06 UTC til 27. klokken 06 UTC
Vind 10 kt fra Øst
Sikt 10 km eller mer
Få skyer i en høyde av 1800 ft
Midlertidig
fra 26. klokken 12 UTC til 26. klokken 22 UTC
Brutte skyer i en høyde av 1500 ft

TAF: TNCC 260330Z 2606/2706 10010KT 9999 FEW018 TEMPO 2612/2622 BKN015

Værobservasjoner og værvarsel for over 4000 flyplasser (METAR- og TAF-rapporter).

Tilgjengelige stasjoner er representert av de røde og gule prikkene på kartet.

Hold musepekeren over prikken for å se navnet på stasjonen.

Klikk så for å se værobservasjoner og -varsler.

For å forandre kartet kan du klikke på den grønne knappen med svart kryss for å zoome inn, på den grønne knappen med strek for å zoome ut, eller på de grønne pilene for å se tilstøtende kart.


METAR-TAF: